Terminal Aerodrome Forecast
Issued by NWS Charleston, WV

Current Version | Previous Version | Graphics & Text | Print | Product List | Glossary On
Versions: 1 2 3 4 5 6 7 8 9 10 11 12 13 14 15 16 17 18 19 20 21 22 23 24
000
FTUS41 KRLX 232320
TAFPKB
TAF
KPKB 232320Z 2400/2424 23004KT P6SM SKC
     FM240400 00000KT 4SM BR SCT250
     FM240500 00000KT 2SM BR SCT250
     FM240600 00000KT 1/2SM FG VV001
     FM241230 00000KT 4SM BR SCT002
     FM241300 VRB04KT P6SM SCT045=

USA.gov is the U.S. government's official web portal to all federal, state and local government web resources and services.